Decker, Montana
Current Conditions -  °F | °C
As of 10:53 AM on Thursday 27 Nov 2014 (Local Time) from KSHR Reporting Station
Clear Clear  
Wind Chill: 27°   Ceiling: Unl
Heat Index: 32°   Visibility: 10mi
Dew Point: 28°   Wind: 5mph
Humidity: 85%   Direction: 60°ENE
Pressure: 29.93"   Gusts: NA
Location:  45.03°N, 106.84°W
Report Text: KSHR 271753Z AUTO 06004KT 10SM CLR 00/M02 A2993 RMK AO2 SLP173 I1000 I6002 T00001022 10000 21056 58013 TSNO
Loading
Personal Weather Stations






























Interactive Weather Map New forecast layout! Learn more

10-Day Weather Forecast

Advertisements
Track Severe Weather on mobile